createdAt,value
2022-07-29T00:00:07.634Z,67.72
2022-07-29T00:00:27.683Z,67.56
2022-07-29T00:00:47.835Z,67.48
2022-07-29T00:01:07.810Z,67.24
2022-07-29T00:01:27.876Z,67.25
2022-07-29T00:01:47.925Z,67.2
2022-07-29T00:02:07.985Z,67.38
2022-07-29T00:02:28.120Z,67.34
2022-07-29T00:02:48.157Z,67.3
2022-07-29T00:03:08.257Z,67.25
2022-07-29T00:03:28.224Z,67.3
2022-07-29T00:03:48.421Z,67.43
2022-07-29T00:04:08.396Z,67.55
2022-07-29T00:04:28.476Z,67.58
2022-07-29T00:04:48.452Z,67.61
2022-07-29T00:05:08.523Z,67.41
2022-07-29T00:05:28.583Z,67.07
2022-07-29T00:05:48.715Z,67.02
2022-07-29T00:06:08.706Z,67.25
2022-07-29T00:06:28.781Z,67.15
2022-07-29T00:06:48.831Z,67.01
2022-07-29T00:07:08.898Z,67.09
2022-07-29T00:07:28.956Z,67.46
2022-07-29T00:07:48.998Z,67.37
2022-07-29T00:08:12.426Z,67.34
2022-07-29T00:08:29.139Z,66.99
2022-07-29T00:08:49.189Z,67.05
2022-07-29T00:09:09.263Z,66.89
2022-07-29T00:09:29.348Z,67.3
2022-07-29T00:09:51.796Z,67.35
2022-07-29T00:10:09.456Z,67.56
2022-07-29T00:10:29.519Z,67.65
2022-07-29T00:10:49.653Z,67.61
2022-07-29T00:11:09.646Z,67.7
2022-07-29T00:11:29.687Z,67.54
2022-07-29T00:11:49.752Z,67.44
2022-07-29T00:12:09.882Z,67.42
2022-07-29T00:12:29.887Z,67.39
2022-07-29T00:12:49.965Z,67.35
2022-07-29T00:13:09.999Z,67.6
2022-07-29T00:13:32.544Z,67.86
2022-07-29T00:13:51.145Z,67.74
2022-07-29T00:14:10.260Z,67.61
2022-07-29T00:14:30.279Z,67.61
2022-07-29T00:14:50.341Z,67.99
2022-07-29T00:15:10.431Z,67.96
2022-07-29T00:15:30.494Z,67.94
2022-07-29T00:15:50.660Z,67.87
2022-07-29T00:16:10.717Z,67.62
2022-07-29T00:16:30.814Z,67.85
2022-07-29T00:16:50.855Z,68.07
2022-07-29T00:17:10.886Z,68.5
2022-07-29T00:17:30.943Z,68.43
2022-07-29T00:17:51.052Z,68.19
2022-07-29T00:18:11.101Z,67.93
2022-07-29T00:18:31.187Z,67.61
2022-07-29T00:18:51.250Z,67.52
2022-07-29T00:19:11.325Z,67.61
2022-07-29T00:19:31.408Z,67.65
2022-07-29T00:19:51.504Z,68
2022-07-29T00:20:11.583Z,68.32
2022-07-29T00:20:31.684Z,68.55
2022-07-29T00:20:51.843Z,68.17
2022-07-29T00:21:11.847Z,67.93
2022-07-29T00:21:31.918Z,68.02
2022-07-29T00:21:51.982Z,68.26
2022-07-29T00:22:12.062Z,68.35
2022-07-29T00:22:32.144Z,68.27
2022-07-29T00:22:52.227Z,68.05
2022-07-29T00:23:13.698Z,68.23
2022-07-29T00:23:36.443Z,68.42
2022-07-29T00:23:52.451Z,68.39
2022-07-29T00:24:12.966Z,68.31
2022-07-29T00:24:32.607Z,68.27
2022-07-29T00:24:52.713Z,67.97
2022-07-29T00:25:12.804Z,68.04
2022-07-29T00:25:32.879Z,68.1
2022-07-29T00:25:53.006Z,68.19
2022-07-29T00:26:13.001Z,68.68
2022-07-29T00:26:33.105Z,68.69
2022-07-29T00:26:53.152Z,68.58
2022-07-29T00:27:13.253Z,68.52
2022-07-29T00:27:33.356Z,69.03
2022-07-29T00:27:53.405Z,68.8
2022-07-29T00:28:13.491Z,68.63
2022-07-29T00:28:33.555Z,68.45
2022-07-29T00:29:17.204Z,68.43
2022-07-29T00:29:34.936Z,68.42
2022-07-29T00:29:53.819Z,68.38
2022-07-29T00:30:13.876Z,68.36
2022-07-29T00:30:33.942Z,68.43
2022-07-29T00:30:54.120Z,68.64
2022-07-29T00:31:14.163Z,68.63
2022-07-29T00:31:34.211Z,68.67
2022-07-29T00:31:54.310Z,68.58
2022-07-29T00:32:14.298Z,68.57
2022-07-29T00:32:34.365Z,68.63
2022-07-29T00:32:54.444Z,68.58
2022-07-29T00:33:14.512Z,68.77
2022-07-29T00:33:34.582Z,68.89
2022-07-29T00:33:54.650Z,68.87
2022-07-29T00:34:14.977Z,68.76
2022-07-29T00:34:34.834Z,68.77
2022-07-29T00:34:54.924Z,68.53
2022-07-29T00:35:15.009Z,68.54
2022-07-29T00:35:35.057Z,68.33
2022-07-29T00:35:55.201Z,68.24
2022-07-29T00:36:15.227Z,68.27
2022-07-29T00:36:35.313Z,68.52
2022-07-29T00:36:55.395Z,68.44
2022-07-29T00:37:15.478Z,68.11
2022-07-29T00:37:35.572Z,67.95
2022-07-29T00:37:55.676Z,67.99
2022-07-29T00:38:15.753Z,68.38
2022-07-29T00:38:35.822Z,68.3
2022-07-29T00:38:55.924Z,68.45
2022-07-29T00:39:16.005Z,68.54
2022-07-29T00:39:36.090Z,68.65
2022-07-29T00:39:56.162Z,68.41
2022-07-29T00:40:16.234Z,68.29
2022-07-29T00:40:36.296Z,68.08
2022-07-29T00:40:56.451Z,68.08
2022-07-29T00:41:16.438Z,68.08
2022-07-29T00:41:36.512Z,68.14
2022-07-29T00:41:56.567Z,68.15
2022-07-29T00:42:16.638Z,68.8
2022-07-29T00:42:36.734Z,68.94
2022-07-29T00:42:56.792Z,69.03
2022-07-29T00:43:16.867Z,69.76
2022-07-29T00:43:36.934Z,70.22
2022-07-29T00:43:57.023Z,69.74
2022-07-29T00:44:17.406Z,69.12
2022-07-29T00:44:37.149Z,68.97
2022-07-29T00:44:57.239Z,68.76
2022-07-29T00:45:17.325Z,68.38
2022-07-29T00:45:37.368Z,68.44
2022-07-29T00:45:57.509Z,68.47
2022-07-29T00:46:17.590Z,68.58
2022-07-29T00:46:37.656Z,68.47
2022-07-29T00:46:57.780Z,68.13
2022-07-29T00:47:17.810Z,68.46
2022-07-29T00:47:37.862Z,68.89
2022-07-29T00:47:57.945Z,69.17
2022-07-29T00:48:17.987Z,69.31
2022-07-29T00:48:38.118Z,69.19
2022-07-29T00:48:58.155Z,69.01
2022-07-29T00:49:18.364Z,69.17
2022-07-29T00:49:38.188Z,69.36
2022-07-29T00:49:58.285Z,68.9
2022-07-29T00:50:18.348Z,68.38
2022-07-29T00:50:38.435Z,68.06
2022-07-29T00:50:58.573Z,67.99
2022-07-29T00:51:18.578Z,67.83
2022-07-29T00:51:38.635Z,67.91
2022-07-29T00:51:58.733Z,67.88
2022-07-29T00:52:18.798Z,67.8
2022-07-29T00:52:38.873Z,67.78
2022-07-29T00:52:58.991Z,68.17
2022-07-29T00:53:19.054Z,68.64
2022-07-29T00:53:39.114Z,69.03
2022-07-29T00:53:59.213Z,69.41
2022-07-29T00:54:19.595Z,69.33
2022-07-29T00:54:44.019Z,69.47
2022-07-29T00:54:59.411Z,69.23
2022-07-29T00:55:19.496Z,69.01
2022-07-29T00:55:39.574Z,68.95
2022-07-29T00:55:59.703Z,68.62
2022-07-29T00:56:19.686Z,68.81
2022-07-29T00:56:39.763Z,68.4
2022-07-29T00:56:59.817Z,68.04
2022-07-29T00:57:19.884Z,68.27
2022-07-29T00:57:39.975Z,67.86
2022-07-29T00:58:00.105Z,68.03
2022-07-29T00:58:20.132Z,68.1
2022-07-29T00:58:40.202Z,68.25
2022-07-29T00:59:00.278Z,68.18
2022-07-29T00:59:20.331Z,68.27
2022-07-29T00:59:40.411Z,68.06
2022-07-29T01:00:00.471Z,67.71
2022-07-29T01:00:20.570Z,67.78
2022-07-29T01:00:40.688Z,67.71
2022-07-29T01:01:00.786Z,67.83
2022-07-29T01:01:20.857Z,68.28
2022-07-29T01:01:40.900Z,68.38
2022-07-29T01:02:00.937Z,68.09
2022-07-29T01:02:21.022Z,67.84
2022-07-29T01:02:41.005Z,68.26
2022-07-29T01:03:01.059Z,68.28
2022-07-29T01:03:21.122Z,68.15
2022-07-29T01:03:41.180Z,68.06
2022-07-29T01:04:01.249Z,68.15
2022-07-29T01:04:21.313Z,68.48
2022-07-29T01:04:41.374Z,68.51
2022-07-29T01:05:01.431Z,68.6
2022-07-29T01:05:21.483Z,68.92
2022-07-29T01:05:51.028Z,68.82
2022-07-29T01:06:01.676Z,68.53
2022-07-29T01:06:21.669Z,68.3
2022-07-29T01:06:41.730Z,68.77
2022-07-29T01:07:01.796Z,69.1
2022-07-29T01:07:21.837Z,68.69
2022-07-29T01:07:41.912Z,68.58
2022-07-29T01:08:01.985Z,68.61
2022-07-29T01:08:22.033Z,68.51
2022-07-29T01:08:42.104Z,68.5
2022-07-29T01:09:02.155Z,68.36
2022-07-29T01:09:35.001Z,68.21
2022-07-29T01:09:46.887Z,68.39
2022-07-29T01:10:02.343Z,68.35
2022-07-29T01:10:22.393Z,68.49
2022-07-29T01:10:42.462Z,68.53
2022-07-29T01:11:02.608Z,68.49
2022-07-29T01:11:22.588Z,68.55
2022-07-29T01:11:42.671Z,68.8
2022-07-29T01:12:02.713Z,68.62
2022-07-29T01:12:22.788Z,68.44
2022-07-29T01:12:42.856Z,68.93
2022-07-29T01:13:02.908Z,68.66
2022-07-29T01:13:22.964Z,68.43
2022-07-29T01:13:43.047Z,68.32
2022-07-29T01:14:03.118Z,68.27
2022-07-29T01:14:23.154Z,68.31
2022-07-29T01:14:43.230Z,68.24
2022-07-29T01:15:03.289Z,68.74
2022-07-29T01:15:23.330Z,69.02
2022-07-29T01:15:49.207Z,68.78
2022-07-29T01:16:03.597Z,68.66
2022-07-29T01:16:23.528Z,68.6
2022-07-29T01:16:43.641Z,68.3
2022-07-29T01:17:03.606Z,68.71
2022-07-29T01:17:23.694Z,68.89
2022-07-29T01:17:52.733Z,68.76
2022-07-29T01:18:03.815Z,68.39
2022-07-29T01:18:23.874Z,68.35
2022-07-29T01:18:43.946Z,68.3
2022-07-29T01:19:04.028Z,68.75
2022-07-29T01:19:24.066Z,69.06
2022-07-29T01:19:44.166Z,68.75
2022-07-29T01:20:04.229Z,68.47
2022-07-29T01:20:24.297Z,68.86
2022-07-29T01:20:44.346Z,68.99
2022-07-29T01:21:04.494Z,68.64
2022-07-29T01:21:24.464Z,68.59
2022-07-29T01:21:44.519Z,68.65
2022-07-29T01:22:04.577Z,68.62
2022-07-29T01:22:24.647Z,68.42
2022-07-29T01:22:44.721Z,68.4
2022-07-29T01:23:04.760Z,68.35
2022-07-29T01:23:24.826Z,68.22
2022-07-29T01:23:44.877Z,68.36
2022-07-29T01:24:04.948Z,68.51
2022-07-29T01:24:25.015Z,68.76
2022-07-29T01:24:45.082Z,68.59
2022-07-29T01:25:05.133Z,68.39
2022-07-29T01:25:25.185Z,68.54
2022-07-29T01:25:45.249Z,68.36
2022-07-29T01:26:05.831Z,68.22
2022-07-29T01:26:25.369Z,68.46
2022-07-29T01:26:45.429Z,68.27
2022-07-29T01:27:05.498Z,68.12
2022-07-29T01:27:25.570Z,68.6
2022-07-29T01:27:45.610Z,68.9
2022-07-29T01:28:05.660Z,68.6
2022-07-29T01:28:25.760Z,68.41
2022-07-29T01:28:45.819Z,68.66
2022-07-29T01:29:08.240Z,68.85
2022-07-29T01:29:26.021Z,69.02
2022-07-29T01:29:46.114Z,69.1
2022-07-29T01:30:06.343Z,68.74
2022-07-29T01:30:26.275Z,68.48
2022-07-29T01:30:46.365Z,68.48
2022-07-29T01:31:06.597Z,68.43
2022-07-29T01:31:26.791Z,68.46
2022-07-29T01:32:00.663Z,68.83
2022-07-29T01:32:06.763Z,68.26
2022-07-29T01:32:28.945Z,67.85
2022-07-29T01:32:46.848Z,67.98
2022-07-29T01:33:06.902Z,68.17
2022-07-29T01:33:26.983Z,68.09
2022-07-29T01:33:47.068Z,67.65
2022-07-29T01:34:07.174Z,67.61
2022-07-29T01:34:27.244Z,67.49
2022-07-29T01:34:47.343Z,67.34
2022-07-29T01:35:07.431Z,67.18
2022-07-29T01:35:27.499Z,67.29
2022-07-29T01:35:47.555Z,67.4
2022-07-29T01:36:07.716Z,68.2
2022-07-29T01:36:27.698Z,67.73
2022-07-29T01:36:47.785Z,67.57
2022-07-29T01:37:07.870Z,67.48
2022-07-29T01:37:27.930Z,67.51
2022-07-29T01:37:48.008Z,67.62
2022-07-29T01:38:08.094Z,67.7
2022-07-29T01:38:28.155Z,67.57
2022-07-29T01:38:48.202Z,68.2
2022-07-29T01:39:08.307Z,68.99
2022-07-29T01:39:28.362Z,69.01
2022-07-29T01:39:48.446Z,68.56
2022-07-29T01:40:08.502Z,68.44
2022-07-29T01:40:28.592Z,68.15
2022-07-29T01:40:48.686Z,67.81
2022-07-29T01:41:08.811Z,67.89
2022-07-29T01:41:28.795Z,67.98
2022-07-29T01:41:48.878Z,68.53
2022-07-29T01:42:08.945Z,68.45
2022-07-29T01:42:29.055Z,68.27
2022-07-29T01:42:49.119Z,68.16
2022-07-29T01:43:09.216Z,68.16
2022-07-29T01:43:29.277Z,68.18
2022-07-29T01:43:49.357Z,67.92
2022-07-29T01:44:09.441Z,68.01
2022-07-29T01:44:29.546Z,68.36
2022-07-29T01:44:49.623Z,68.58
2022-07-29T01:45:09.680Z,68.13
2022-07-29T01:45:29.751Z,67.87
2022-07-29T01:45:49.904Z,67.93
2022-07-29T01:46:10.084Z,67.76
2022-07-29T01:46:30.089Z,67.56
2022-07-29T01:46:50.234Z,67.52
2022-07-29T01:47:10.170Z,67.53
2022-07-29T01:47:30.225Z,67.62
2022-07-29T01:47:50.304Z,67.37
2022-07-29T01:48:10.409Z,67.23
2022-07-29T01:48:30.483Z,67.11
2022-07-29T01:48:50.651Z,66.99
2022-07-29T01:49:10.724Z,67.4
2022-07-29T01:49:30.725Z,67.8
2022-07-29T01:49:50.811Z,67.74
2022-07-29T01:50:10.895Z,67.82
2022-07-29T01:50:30.990Z,67.39
2022-07-29T01:50:51.044Z,67.43
2022-07-29T01:51:11.193Z,67.33
2022-07-29T01:51:31.212Z,67.2
2022-07-29T01:51:51.300Z,67.08
2022-07-29T01:52:11.374Z,67.55
2022-07-29T01:52:31.426Z,68.22
2022-07-29T01:52:51.518Z,68.06
2022-07-29T01:53:11.566Z,67.84
2022-07-29T01:53:38.190Z,67.72
2022-07-29T01:53:51.746Z,67.57
2022-07-29T01:54:11.749Z,67.39
2022-07-29T01:54:31.832Z,67.63
2022-07-29T01:54:51.897Z,67.86
2022-07-29T01:55:11.949Z,67.97
2022-07-29T01:55:32.010Z,68.33
2022-07-29T01:55:52.069Z,68.2
2022-07-29T01:56:12.231Z,68.1
2022-07-29T01:56:32.220Z,67.94
2022-07-29T01:56:52.304Z,67.8
2022-07-29T01:57:12.377Z,67.8
2022-07-29T01:57:32.457Z,67.81
2022-07-29T01:57:52.512Z,67.89
2022-07-29T01:58:12.569Z,67.86
2022-07-29T01:58:32.637Z,67.79
2022-07-29T01:58:52.737Z,68.42
2022-07-29T01:59:12.787Z,68.37
2022-07-29T01:59:32.854Z,68.2
2022-07-29T01:59:52.957Z,68.29
2022-07-29T02:00:13.020Z,68.14
2022-07-29T02:00:33.102Z,68.04
2022-07-29T02:00:53.132Z,67.8
2022-07-29T02:01:13.255Z,67.86
2022-07-29T02:01:33.332Z,68.29
2022-07-29T02:01:54.410Z,68.49
2022-07-29T02:02:13.505Z,68.4
2022-07-29T02:02:33.439Z,68.2
2022-07-29T02:02:53.575Z,68
2022-07-29T02:03:13.586Z,67.84
2022-07-29T02:03:33.660Z,68.17
2022-07-29T02:03:53.744Z,68.01
2022-07-29T02:04:29.525Z,68.28
2022-07-29T02:04:33.943Z,68.04
2022-07-29T02:04:54.022Z,67.84
2022-07-29T02:05:14.110Z,67.93
2022-07-29T02:05:34.113Z,68.48
2022-07-29T02:05:54.193Z,68.69
2022-07-29T02:06:14.343Z,68.25
2022-07-29T02:06:34.333Z,67.86
2022-07-29T02:06:54.406Z,67.86
2022-07-29T02:07:14.453Z,67.63
2022-07-29T02:07:34.515Z,65.56
2022-07-29T02:07:54.582Z,66.65
2022-07-29T02:08:14.649Z,67.21
2022-07-29T02:08:34.729Z,67.14
2022-07-29T02:08:54.807Z,66.25
2022-07-29T02:09:14.876Z,65.9
2022-07-29T02:09:34.969Z,65.75
2022-07-29T02:09:55.040Z,66.52
2022-07-29T02:10:15.132Z,66.41
2022-07-29T02:10:35.190Z,66.73
2022-07-29T02:10:55.279Z,67.04
2022-07-29T02:11:15.435Z,67.31
2022-07-29T02:11:35.444Z,67.37
2022-07-29T02:11:55.525Z,67.8
2022-07-29T02:12:15.608Z,67.91
2022-07-29T02:12:35.703Z,67.92
2022-07-29T02:12:55.766Z,67.66
2022-07-29T02:13:15.816Z,67.47
2022-07-29T02:13:35.879Z,67.47
2022-07-29T02:13:55.962Z,67.43
2022-07-29T02:14:16.281Z,67.73
2022-07-29T02:14:36.064Z,68.2
2022-07-29T02:14:56.165Z,68.1
2022-07-29T02:15:16.251Z,68.17
2022-07-29T02:15:36.318Z,68.61
2022-07-29T02:15:56.477Z,68.5
2022-07-29T02:16:16.602Z,68.17
2022-07-29T02:16:36.679Z,67.97
2022-07-29T02:16:56.623Z,67.33
2022-07-29T02:17:16.699Z,66.65
2022-07-29T02:17:38.837Z,66.83
2022-07-29T02:17:56.813Z,67.01
2022-07-29T02:18:16.841Z,67.35
2022-07-29T02:18:36.898Z,67.43
2022-07-29T02:18:56.982Z,67.49
2022-07-29T02:19:17.047Z,67.55
2022-07-29T02:19:37.104Z,67.57
2022-07-29T02:19:57.165Z,67.57
2022-07-29T02:20:17.243Z,67.4
2022-07-29T02:20:37.297Z,67.24
2022-07-29T02:20:57.365Z,67.07
2022-07-29T02:21:17.475Z,67.41
2022-07-29T02:21:37.458Z,67.95
2022-07-29T02:21:57.563Z,68.22
2022-07-29T02:22:17.610Z,67.91
2022-07-29T02:22:37.663Z,67.67
2022-07-29T02:22:57.717Z,67.78
2022-07-29T02:23:17.780Z,67.75
2022-07-29T02:23:50.323Z,68
2022-07-29T02:23:57.901Z,68
2022-07-29T02:24:18.471Z,67.95
2022-07-29T02:24:38.027Z,67.24
2022-07-29T02:24:58.088Z,67.62
2022-07-29T02:25:18.138Z,68.08
2022-07-29T02:25:38.531Z,67.41
2022-07-29T02:25:58.276Z,67.78
2022-07-29T02:26:18.408Z,67.81
2022-07-29T02:26:38.385Z,67.74
2022-07-29T02:26:58.454Z,67.65
2022-07-29T02:27:18.513Z,67.53
2022-07-29T02:27:38.574Z,67.41
2022-07-29T02:27:58.635Z,66.48
2022-07-29T02:28:18.675Z,64.67
2022-07-29T02:28:38.757Z,64.94
2022-07-29T02:28:58.787Z,65.39
2022-07-29T02:29:18.854Z,65.49
2022-07-29T02:29:38.948Z,66.51
2022-07-29T02:29:58.983Z,66.51
2022-07-29T02:30:19.074Z,66.56
2022-07-29T02:30:39.139Z,66.4
2022-07-29T02:30:59.340Z,66.27
2022-07-29T02:31:19.419Z,66.05
2022-07-29T02:31:39.551Z,66.02
2022-07-29T02:31:59.507Z,66.63
2022-07-29T02:32:19.574Z,66.29
2022-07-29T02:32:40.246Z,66.1
2022-07-29T02:32:59.756Z,65.96
2022-07-29T02:33:19.829Z,66.16
2022-07-29T02:33:39.883Z,66.16
2022-07-29T02:33:59.959Z,66.56
2022-07-29T02:34:20.206Z,66.7
2022-07-29T02:34:40.081Z,66.57
2022-07-29T02:35:00.153Z,66.47
2022-07-29T02:35:20.210Z,66.35
2022-07-29T02:35:40.282Z,66.38
2022-07-29T02:36:00.327Z,66.57
2022-07-29T02:36:20.469Z,67.12
2022-07-29T02:36:40.434Z,67.06
2022-07-29T02:37:00.522Z,66.86
2022-07-29T02:37:20.600Z,66.77
2022-07-29T02:37:40.701Z,66.98
2022-07-29T02:38:00.768Z,67.08
2022-07-29T02:38:20.839Z,67.08
2022-07-29T02:38:40.928Z,66.72
2022-07-29T02:39:01.013Z,66.53
2022-07-29T02:39:21.097Z,66.37
2022-07-29T02:39:41.164Z,66.25
2022-07-29T02:40:01.262Z,65.91
2022-07-29T02:40:21.318Z,65.66
2022-07-29T02:40:41.400Z,65.61
2022-07-29T02:41:01.454Z,65.57
2022-07-29T02:41:21.579Z,66.21
2022-07-29T02:41:41.602Z,66.69
2022-07-29T02:42:01.670Z,66.54
2022-07-29T02:42:21.741Z,65.69
2022-07-29T02:42:41.799Z,66.03
2022-07-29T02:43:01.889Z,65.9
2022-07-29T02:43:21.959Z,66.38
2022-07-29T02:43:41.996Z,66.51
2022-07-29T02:44:02.080Z,66.15
2022-07-29T02:44:22.156Z,65.88
2022-07-29T02:44:42.217Z,65.63
2022-07-29T02:45:02.289Z,65.79
2022-07-29T02:45:22.367Z,66.12
2022-07-29T02:45:42.445Z,66.28
2022-07-29T02:46:02.571Z,66.26
2022-07-29T02:46:28.624Z,66.24
2022-07-29T02:46:42.759Z,66.16
2022-07-29T02:47:02.859Z,66.18
2022-07-29T02:47:22.878Z,66.34
2022-07-29T02:47:42.951Z,66.15
2022-07-29T02:48:03.010Z,66.16
2022-07-29T02:48:23.096Z,66.1
2022-07-29T02:48:43.195Z,66.13
2022-07-29T02:49:03.323Z,66.11
2022-07-29T02:49:23.357Z,66.29
2022-07-29T02:49:43.393Z,66.66
2022-07-29T02:50:03.469Z,66.65
2022-07-29T02:50:23.554Z,67
2022-07-29T02:50:43.621Z,66.96
2022-07-29T02:51:03.698Z,66.91
2022-07-29T02:51:41.508Z,67.11
2022-07-29T02:51:44.976Z,67.35
2022-07-29T02:52:03.939Z,67.36
2022-07-29T02:52:24.029Z,67.44
2022-07-29T02:52:44.092Z,67.46
2022-07-29T02:53:04.159Z,67.29
2022-07-29T02:53:24.223Z,67.19
2022-07-29T02:53:44.284Z,67.12
2022-07-29T02:54:04.370Z,67.26
2022-07-29T02:54:24.464Z,67.07
2022-07-29T02:54:44.513Z,66.96
2022-07-29T02:55:04.582Z,67.04
2022-07-29T02:55:24.684Z,67.2
2022-07-29T02:55:44.772Z,67.48
2022-07-29T02:56:04.851Z,67.55
2022-07-29T02:56:24.970Z,67.63
2022-07-29T02:56:44.985Z,67.69
2022-07-29T02:57:05.053Z,67.32
2022-07-29T02:57:25.091Z,67.29
2022-07-29T02:57:54.918Z,67.67
2022-07-29T02:58:05.243Z,68.12
2022-07-29T02:58:25.314Z,68.4
2022-07-29T02:58:45.413Z,67.75
2022-07-29T02:59:05.462Z,67.72
2022-07-29T02:59:25.589Z,67.71
2022-07-29T02:59:45.652Z,67.42
2022-07-29T03:00:05.747Z,67.34
2022-07-29T03:00:25.834Z,67.54
2022-07-29T03:00:45.942Z,67.28
2022-07-29T03:01:06.538Z,67.28
2022-07-29T03:01:26.241Z,67.24
2022-07-29T03:01:46.278Z,67.28
2022-07-29T03:02:06.343Z,67.43
2022-07-29T03:02:26.313Z,67.79
2022-07-29T03:02:46.406Z,67.85
2022-07-29T03:03:06.497Z,67.7
2022-07-29T03:03:26.587Z,67.74
2022-07-29T03:03:46.665Z,68.06
2022-07-29T03:04:06.706Z,68.53
2022-07-29T03:04:26.925Z,68.5
2022-07-29T03:04:46.872Z,68.48
2022-07-29T03:05:06.981Z,68.32
2022-07-29T03:05:26.985Z,68.28
2022-07-29T03:05:47.053Z,68.33
2022-07-29T03:06:07.122Z,68.31
2022-07-29T03:06:30.895Z,68.2
2022-07-29T03:06:47.300Z,68.1
2022-07-29T03:07:07.370Z,68.08
2022-07-29T03:07:27.421Z,68.18
2022-07-29T03:07:47.522Z,67.97
2022-07-29T03:08:07.607Z,67.73
2022-07-29T03:08:27.652Z,67.83
2022-07-29T03:08:47.733Z,67.72
2022-07-29T03:09:12.493Z,67.69
2022-07-29T03:09:27.887Z,67.99
2022-07-29T03:09:47.991Z,68.33
2022-07-29T03:10:08.072Z,68.22
2022-07-29T03:10:28.175Z,68.11
2022-07-29T03:10:48.235Z,68.42
2022-07-29T03:11:08.322Z,68.3
2022-07-29T03:11:40.120Z,68.74
2022-07-29T03:11:50.481Z,69.18
2022-07-29T03:12:08.544Z,69.36
2022-07-29T03:12:28.662Z,69.38
2022-07-29T03:12:48.732Z,69.34
2022-07-29T03:13:08.831Z,69.31
2022-07-29T03:13:28.871Z,69.02
2022-07-29T03:13:48.952Z,68.82
2022-07-29T03:14:09.059Z,68.39
2022-07-29T03:14:29.110Z,68.37
2022-07-29T03:14:49.181Z,68.76
2022-07-29T03:15:09.253Z,68.8
2022-07-29T03:15:29.286Z,69.06
2022-07-29T03:15:49.421Z,69.01
2022-07-29T03:16:09.455Z,69
2022-07-29T03:16:29.635Z,69.31
2022-07-29T03:16:49.579Z,69.16
2022-07-29T03:17:09.642Z,68.99
2022-07-29T03:17:29.705Z,69.22
2022-07-29T03:17:49.818Z,69.37
2022-07-29T03:18:09.913Z,69.54
2022-07-29T03:18:29.966Z,69.54
2022-07-29T03:18:50.054Z,69.5
2022-07-29T03:19:10.134Z,69.28
2022-07-29T03:19:30.204Z,69.11
2022-07-29T03:19:50.264Z,69.2
2022-07-29T03:20:10.343Z,69.07
2022-07-29T03:20:30.398Z,69.23
2022-07-29T03:20:50.441Z,69.54
2022-07-29T03:21:10.514Z,69.59
2022-07-29T03:21:30.636Z,69.59
2022-07-29T03:21:50.636Z,69.58
2022-07-29T03:22:10.684Z,69.15
2022-07-29T03:22:30.732Z,68.96
2022-07-29T03:22:50.784Z,68.89
2022-07-29T03:23:10.828Z,68.88
2022-07-29T03:23:33.183Z,69.03
2022-07-29T03:23:50.966Z,69.26
2022-07-29T03:24:11.260Z,69.3
2022-07-29T03:24:31.125Z,69.22
2022-07-29T03:24:51.171Z,69.12
2022-07-29T03:25:11.223Z,69.13
2022-07-29T03:25:31.284Z,69.15
2022-07-29T03:25:51.351Z,69.03
2022-07-29T03:26:11.427Z,68.91
2022-07-29T03:26:31.569Z,68.92
2022-07-29T03:26:51.530Z,68.87
2022-07-29T03:27:11.605Z,68.81
2022-07-29T03:27:31.655Z,68.67
2022-07-29T03:27:51.736Z,68.97
2022-07-29T03:28:11.770Z,69
2022-07-29T03:28:31.821Z,69.07
2022-07-29T03:28:51.870Z,69.11
2022-07-29T03:29:13.498Z,69.22
2022-07-29T03:29:33.031Z,69.08
2022-07-29T03:29:52.082Z,69.08
2022-07-29T03:30:12.141Z,68.93
2022-07-29T03:30:32.282Z,68.89
2022-07-29T03:30:52.291Z,68.89
2022-07-29T03:31:12.384Z,68.76
2022-07-29T03:31:33.360Z,68.88
2022-07-29T03:31:52.450Z,68.93
2022-07-29T03:32:12.542Z,68.96
2022-07-29T03:32:32.567Z,68.98
2022-07-29T03:32:52.710Z,69.11
2022-07-29T03:33:13.500Z,69.06
2022-07-29T03:33:32.760Z,69.11
2022-07-29T03:33:52.832Z,69.35
2022-07-29T03:34:13.246Z,69.24
2022-07-29T03:34:32.948Z,69.31
2022-07-29T03:34:52.994Z,69.36
2022-07-29T03:35:13.081Z,69.4
2022-07-29T03:35:33.132Z,69.36
2022-07-29T03:35:53.182Z,69.43
2022-07-29T03:36:13.254Z,69.4
2022-07-29T03:36:33.394Z,69.78
2022-07-29T03:36:53.381Z,69.74
2022-07-29T03:37:13.465Z,69.79
2022-07-29T03:37:33.501Z,69.61
2022-07-29T03:37:53.579Z,69.28
2022-07-29T03:38:13.625Z,69.17
2022-07-29T03:38:33.701Z,69.22
2022-07-29T03:38:53.764Z,69.38
2022-07-29T03:39:13.813Z,69.15
2022-07-29T03:39:33.877Z,68.99
2022-07-29T03:39:53.947Z,68.67
2022-07-29T03:40:13.993Z,68.64
2022-07-29T03:40:34.048Z,68.69
2022-07-29T03:40:54.130Z,68.62
2022-07-29T03:41:14.185Z,68.54
2022-07-29T03:41:34.318Z,68.58
2022-07-29T03:41:54.293Z,68.7
2022-07-29T03:42:14.368Z,69.04
2022-07-29T03:42:34.627Z,69.54
2022-07-29T03:42:54.508Z,69.69
2022-07-29T03:43:14.558Z,69.77
2022-07-29T03:43:34.630Z,69.65
2022-07-29T03:43:54.674Z,69.58
2022-07-29T03:44:15.091Z,69.41
2022-07-29T03:44:34.805Z,69.22
2022-07-29T03:44:54.876Z,69.07
2022-07-29T03:45:14.932Z,68.96
2022-07-29T03:45:34.999Z,68.98
2022-07-29T03:45:55.088Z,68.93
2022-07-29T03:46:15.172Z,68.96
2022-07-29T03:46:35.336Z,69.05
2022-07-29T03:46:55.250Z,69.36
2022-07-29T03:47:15.292Z,69.24
2022-07-29T03:47:49.760Z,69.38
2022-07-29T03:48:00.291Z,69.95
2022-07-29T03:48:15.480Z,69.92
2022-07-29T03:48:35.557Z,69.62
2022-07-29T03:48:55.670Z,69.63
2022-07-29T03:49:15.730Z,69.64
2022-07-29T03:49:35.745Z,69.63
2022-07-29T03:49:55.821Z,69.57
2022-07-29T03:50:15.880Z,69.49
2022-07-29T03:50:35.920Z,69.47
2022-07-29T03:50:56.003Z,69.56
2022-07-29T03:51:16.262Z,69.77
2022-07-29T03:51:36.194Z,69.67
2022-07-29T03:51:56.182Z,69.67
2022-07-29T03:52:16.251Z,70.1
2022-07-29T03:52:36.305Z,70.67
2022-07-29T03:52:56.384Z,70.62
2022-07-29T03:53:16.438Z,70.5
2022-07-29T03:53:36.481Z,70.58
2022-07-29T03:53:56.545Z,70.67
2022-07-29T03:54:17.013Z,70.54
2022-07-29T03:54:36.706Z,70.44
2022-07-29T03:54:56.759Z,70.93
2022-07-29T03:55:16.828Z,70.93
2022-07-29T03:55:36.879Z,70.75
2022-07-29T03:55:56.959Z,70.15
2022-07-29T03:56:17.004Z,69.9
2022-07-29T03:56:37.136Z,69.74
2022-07-29T03:56:57.137Z,69.79
2022-07-29T03:57:17.190Z,69.87
2022-07-29T03:57:37.239Z,69.8
2022-07-29T03:57:57.298Z,69.7
2022-07-29T03:58:17.371Z,69.5
2022-07-29T03:58:37.445Z,69.45
2022-07-29T03:58:57.485Z,69.39
2022-07-29T03:59:17.542Z,69.71
2022-07-29T03:59:37.600Z,70.12
2022-07-29T03:59:57.659Z,70.37
2022-07-29T04:00:17.736Z,70.03
2022-07-29T04:00:37.789Z,70.11
2022-07-29T04:00:57.835Z,69.85
2022-07-29T04:01:17.967Z,69.62
2022-07-29T04:01:38.120Z,69.55
2022-07-29T04:01:58.109Z,69.26
2022-07-29T04:02:22.314Z,69.38
2022-07-29T04:02:38.141Z,69.9
2022-07-29T04:02:58.298Z,70.62
2022-07-29T04:03:18.350Z,70.23
2022-07-29T04:03:38.432Z,70.21
2022-07-29T04:03:58.457Z,69.92
2022-07-29T04:04:18.864Z,69.72
2022-07-29T04:04:38.512Z,70.58
2022-07-29T04:04:58.571Z,70.74
2022-07-29T04:05:18.647Z,70.64
2022-07-29T04:05:38.668Z,70.35
2022-07-29T04:05:58.749Z,70.18
2022-07-29T04:06:18.777Z,70.51
2022-07-29T04:06:38.943Z,70.5
2022-07-29T04:06:58.912Z,70.63
2022-07-29T04:07:18.995Z,70.47
2022-07-29T04:07:39.071Z,70.77
2022-07-29T04:07:59.119Z,70.74
2022-07-29T04:08:19.202Z,71.18
2022-07-29T04:08:39.234Z,71.33
2022-07-29T04:08:59.277Z,71.43
2022-07-29T04:09:19.317Z,71.56
2022-07-29T04:09:39.395Z,71.29
2022-07-29T04:09:59.463Z,71.28
2022-07-29T04:10:30.190Z,71.6
2022-07-29T04:10:39.638Z,71.66
2022-07-29T04:10:59.691Z,71.93
2022-07-29T04:11:19.785Z,71.13
2022-07-29T04:12:01.820Z,70.95
2022-07-29T04:12:03.451Z,71.05
2022-07-29T04:12:19.993Z,70.92
2022-07-29T04:12:40.054Z,70.76
2022-07-29T04:13:00.163Z,70.64
2022-07-29T04:13:20.215Z,70.54
2022-07-29T04:13:40.309Z,70.45
2022-07-29T04:14:00.356Z,70.21
2022-07-29T04:14:20.452Z,70.12
2022-07-29T04:14:40.519Z,70.12
2022-07-29T04:15:00.575Z,70.21
2022-07-29T04:15:20.652Z,70.26
2022-07-29T04:15:40.834Z,70.14
2022-07-29T04:16:00.850Z,70.01
2022-07-29T04:16:20.879Z,70.1
2022-07-29T04:16:40.963Z,70.37
2022-07-29T04:17:00.963Z,70.61
2022-07-29T04:17:21.017Z,71.29
2022-07-29T04:17:41.068Z,71.17
2022-07-29T04:18:01.127Z,70.98
2022-07-29T04:18:21.202Z,70.44
2022-07-29T04:18:41.248Z,70.37
2022-07-29T04:19:01.315Z,70.39
2022-07-29T04:19:21.373Z,70.23
2022-07-29T04:19:41.447Z,70.14